createdAt,value
2018-10-17T00:02:02.965Z,15.97
2018-10-17T00:04:37.620Z,15.94
2018-10-17T00:07:12.365Z,15.91
2018-10-17T00:09:46.828Z,16.07
2018-10-17T00:12:21.371Z,16.12
2018-10-17T00:14:55.986Z,16.19
2018-10-17T00:17:30.628Z,16.22
2018-10-17T00:20:05.881Z,16.25
2018-10-17T00:22:40.235Z,16.27
2018-10-17T00:25:14.827Z,16.28
2018-10-17T00:27:49.365Z,16.27
2018-10-17T00:30:24.166Z,16.30
2018-10-17T00:32:58.993Z,16.20
2018-10-17T00:35:34.009Z,16.20
2018-10-17T00:38:08.503Z,16.15
2018-10-17T00:40:43.122Z,16.13
2018-10-17T00:43:31.213Z,16.08
2018-10-17T00:46:06.003Z,16.03
2018-10-17T00:48:40.659Z,16.19
2018-10-17T00:51:15.283Z,16.26
2018-10-17T00:53:50.332Z,16.23
2018-10-17T00:56:24.876Z,16.23
2018-10-17T00:59:07.858Z,16.20
2018-10-17T01:01:42.332Z,16.20
2018-10-17T01:04:16.999Z,16.15
2018-10-17T01:06:51.922Z,16.22
2018-10-17T01:09:26.601Z,16.25
2018-10-17T01:12:01.254Z,16.23
2018-10-17T01:14:35.951Z,16.20
2018-10-17T01:17:10.650Z,16.17
2018-10-17T01:19:45.217Z,16.12
2018-10-17T01:22:19.832Z,16.07
2018-10-17T01:24:54.418Z,16.15
2018-10-17T01:27:29.185Z,16.18
2018-10-17T01:30:03.690Z,16.17
2018-10-17T01:32:38.603Z,16.18
2018-10-17T01:35:13.233Z,16.11
2018-10-17T01:38:06.382Z,16.07
2018-10-17T01:40:40.901Z,16.03
2018-10-17T01:43:15.490Z,15.97
2018-10-17T01:45:50.164Z,15.91
2018-10-17T01:48:24.590Z,15.87
2018-10-17T01:51:00.006Z,15.86
2018-10-17T01:53:34.657Z,15.87
2018-10-17T01:56:09.172Z,15.89
2018-10-17T01:58:43.725Z,15.87
2018-10-17T02:01:18.381Z,15.82
2018-10-17T02:03:52.957Z,15.77
2018-10-17T02:06:27.530Z,15.73
2018-10-17T02:09:02.236Z,15.76
2018-10-17T02:11:37.396Z,15.86
2018-10-17T02:14:11.900Z,15.82
2018-10-17T02:16:46.940Z,15.81
2018-10-17T02:19:21.448Z,15.82
2018-10-17T02:21:56.120Z,15.88
2018-10-17T02:24:30.673Z,15.91
2018-10-17T02:27:05.405Z,15.99
2018-10-17T02:29:40.111Z,16.03
2018-10-17T02:32:14.756Z,16.06
2018-10-17T02:34:54.689Z,16.04
2018-10-17T02:37:29.285Z,16.02
2018-10-17T02:40:04.033Z,15.92
2018-10-17T02:42:46.030Z,15.92
2018-10-17T02:45:20.737Z,15.90
2018-10-17T02:47:55.546Z,15.81
2018-10-17T02:50:30.139Z,15.63
2018-10-17T02:53:04.971Z,15.61
2018-10-17T02:55:39.476Z,15.77
2018-10-17T02:58:14.135Z,15.91
2018-10-17T03:00:48.628Z,15.96
2018-10-17T03:03:23.276Z,15.89
2018-10-17T03:05:58.710Z,15.94
2018-10-17T03:08:33.460Z,16.02
2018-10-17T03:11:13.237Z,16.06
2018-10-17T03:13:47.829Z,16.06
2018-10-17T03:16:23.261Z,16.07
2018-10-17T03:18:58.431Z,16.03
2018-10-17T03:21:33.437Z,16.09
2018-10-17T03:24:08.442Z,16.10
2018-10-17T03:26:43.561Z,16.08
2018-10-17T03:29:18.798Z,16.02
2018-10-17T03:31:53.482Z,16.03
2018-10-17T03:34:28.164Z,16.06
2018-10-17T03:37:21.876Z,16.13
2018-10-17T03:39:56.526Z,16.06
2018-10-17T03:42:31.335Z,15.99
2018-10-17T03:45:07.585Z,16.03
2018-10-17T03:47:53.688Z,16.04
2018-10-17T03:50:28.276Z,16.10
2018-10-17T03:53:04.132Z,16.14
2018-10-17T03:55:39.125Z,16.07
2018-10-17T03:58:14.225Z,16.12
2018-10-17T04:00:49.704Z,16.10
2018-10-17T04:03:24.292Z,16.07
2018-10-17T04:05:59.170Z,16.04
2018-10-17T04:08:34.173Z,16.01
2018-10-17T04:11:08.762Z,15.92
2018-10-17T04:13:43.697Z,15.76
2018-10-17T04:16:18.410Z,15.64
2018-10-17T04:18:53.131Z,15.52
2018-10-17T04:21:27.767Z,15.46
2018-10-17T04:24:03.537Z,15.41
2018-10-17T04:26:37.944Z,15.55
2018-10-17T04:29:12.933Z,15.72
2018-10-17T04:31:48.287Z,15.83
2018-10-17T04:34:22.944Z,15.91
2018-10-17T04:36:58.434Z,15.93
2018-10-17T04:39:33.244Z,16.01
2018-10-17T04:42:08.270Z,16.04
2018-10-17T04:44:42.956Z,16.06
2018-10-17T04:47:19.199Z,15.99
2018-10-17T04:49:54.877Z,15.94
2018-10-17T04:52:29.478Z,15.97
2018-10-17T04:55:04.142Z,15.91
2018-10-17T04:57:38.822Z,15.91
2018-10-17T05:00:13.950Z,15.91
2018-10-17T05:02:48.378Z,15.90
2018-10-17T05:05:23.095Z,15.88
2018-10-17T05:07:57.642Z,15.87
2018-10-17T05:10:32.472Z,15.82
2018-10-17T05:13:08.338Z,15.63
2018-10-17T05:15:42.951Z,15.42
2018-10-17T05:18:17.422Z,15.32
2018-10-17T05:20:52.414Z,15.46
2018-10-17T05:23:26.848Z,15.56
2018-10-17T05:26:01.506Z,15.57
2018-10-17T05:28:36.269Z,15.47
2018-10-17T05:31:11.307Z,15.49
2018-10-17T05:33:45.760Z,15.48
2018-10-17T05:36:20.441Z,15.56
2018-10-17T05:38:55.407Z,15.74
2018-10-17T05:41:29.953Z,15.77
2018-10-17T05:47:12.449Z,15.79
2018-10-17T05:49:46.920Z,15.81
2018-10-17T05:52:21.713Z,15.93
2018-10-17T05:54:56.753Z,15.99
2018-10-17T05:57:31.540Z,16.02
2018-10-17T06:00:07.048Z,16.01
2018-10-17T06:02:41.474Z,15.95
2018-10-17T06:05:16.338Z,15.92
2018-10-17T06:07:50.832Z,15.75
2018-10-17T06:10:25.839Z,15.66
2018-10-17T06:13:01.030Z,15.52
2018-10-17T06:15:35.808Z,15.47
2018-10-17T06:18:10.868Z,15.42
2018-10-17T06:20:45.503Z,15.37
2018-10-17T06:23:28.052Z,15.39
2018-10-17T06:26:14.392Z,15.40
2018-10-17T06:28:49.344Z,15.45
2018-10-17T06:31:24.040Z,15.38
2018-10-17T06:33:59.084Z,15.29
2018-10-17T06:36:33.700Z,15.30
2018-10-17T06:39:10.735Z,15.23
2018-10-17T06:41:45.138Z,15.36
2018-10-17T06:44:19.828Z,15.42
2018-10-17T06:46:54.623Z,15.57
2018-10-17T06:49:29.367Z,15.74
2018-10-17T06:55:02.965Z,16.14
2018-10-17T06:57:38.056Z,16.26
2018-10-17T07:00:12.625Z,16.34
2018-10-17T07:02:48.254Z,16.51
2018-10-17T07:05:22.824Z,16.62
2018-10-17T07:07:57.440Z,16.86
2018-10-17T07:10:32.881Z,17.75
2018-10-17T07:13:29.681Z,18.97
2018-10-17T07:16:04.249Z,21.03
2018-10-17T07:18:39.068Z,22.09
2018-10-17T07:21:13.658Z,23.20
2018-10-17T07:23:48.236Z,23.30
2018-10-17T07:26:22.820Z,22.77
2018-10-17T07:28:57.466Z,22.44
2018-10-17T07:31:32.325Z,21.37
2018-10-17T07:34:06.964Z,20.45
2018-10-17T07:36:42.162Z,19.78
2018-10-17T07:39:16.850Z,19.29
2018-10-17T07:41:51.535Z,18.87
2018-10-17T07:44:26.358Z,18.52
2018-10-17T07:47:01.321Z,18.47
2018-10-17T07:49:36.082Z,18.24
2018-10-17T07:52:11.080Z,18.14
2018-10-17T07:54:45.527Z,18.13
2018-10-17T07:57:20.875Z,18.02
2018-10-17T07:59:55.693Z,18.06
2018-10-17T08:02:30.381Z,18.16
2018-10-17T08:05:04.952Z,18.12
2018-10-17T08:07:39.582Z,18.19
2018-10-17T08:10:14.513Z,18.29
2018-10-17T08:12:49.478Z,18.21
2018-10-17T08:15:26.241Z,18.37
2018-10-17T08:18:00.932Z,18.37
2018-10-17T08:20:35.669Z,18.40
2018-10-17T08:23:10.940Z,18.41
2018-10-17T08:25:45.696Z,18.44
2018-10-17T08:28:20.326Z,18.43
2018-10-17T08:30:55.311Z,18.47
2018-10-17T08:33:29.772Z,18.67
2018-10-17T08:36:04.426Z,18.84
2018-10-17T08:38:39.589Z,19.03
2018-10-17T08:41:14.577Z,18.93
2018-10-17T08:43:49.454Z,19.03
2018-10-17T08:46:26.167Z,19.24
2018-10-17T08:49:01.061Z,19.33
2018-10-17T08:54:36.749Z,19.39
2018-10-17T08:57:11.558Z,19.65
2018-10-17T08:59:46.712Z,20.05
2018-10-17T09:02:21.272Z,20.10
2018-10-17T09:04:56.260Z,20.39
2018-10-17T09:07:37.701Z,20.64
2018-10-17T09:10:12.585Z,20.82
2018-10-17T09:12:47.109Z,21.05
2018-10-17T09:15:21.709Z,20.95
2018-10-17T09:17:56.718Z,21.27
2018-10-17T09:20:31.425Z,21.40
2018-10-17T09:23:06.721Z,21.57
2018-10-17T09:25:41.510Z,20.93
2018-10-17T09:28:16.662Z,21.00
2018-10-17T09:30:51.533Z,20.58
2018-10-17T09:33:26.055Z,20.46
2018-10-17T09:36:00.635Z,20.30
2018-10-17T09:38:35.924Z,20.10
2018-10-17T09:41:10.701Z,20.28
2018-10-17T09:43:45.333Z,20.41
2018-10-17T09:46:19.965Z,20.52
2018-10-17T09:48:54.636Z,20.55
2018-10-17T09:51:29.245Z,20.36
2018-10-17T09:54:03.630Z,20.28
2018-10-17T09:56:38.266Z,20.57
2018-10-17T09:59:12.861Z,20.69
2018-10-17T10:01:51.532Z,20.65
2018-10-17T10:04:29.317Z,20.76
2018-10-17T10:07:03.839Z,20.56
2018-10-17T10:09:38.432Z,20.78
2018-10-17T10:12:13.292Z,20.70
2018-10-17T10:14:47.864Z,20.87
2018-10-17T10:17:22.586Z,20.74
2018-10-17T10:19:57.725Z,20.40
2018-10-17T10:22:32.221Z,20.60
2018-10-17T10:25:06.971Z,20.76
2018-10-17T10:27:41.496Z,20.96
2018-10-17T10:30:16.128Z,20.87
2018-10-17T10:32:51.861Z,20.81
2018-10-17T10:35:26.996Z,20.82
2018-10-17T10:38:01.655Z,20.93
2018-10-17T10:40:36.490Z,21.11
2018-10-17T10:46:09.776Z,21.17
2018-10-17T10:54:42.636Z,20.90
2018-10-17T10:57:17.354Z,20.81
2018-10-17T10:59:52.280Z,21.01
2018-10-17T11:02:27.057Z,20.97
2018-10-17T11:05:01.950Z,20.95
2018-10-17T11:07:36.758Z,20.93
2018-10-17T11:10:11.286Z,21.08
2018-10-17T11:12:45.847Z,21.24
2018-10-17T11:15:20.536Z,21.14
2018-10-17T11:17:55.294Z,21.22
2018-10-17T11:20:29.848Z,21.14
2018-10-17T11:23:04.532Z,20.98
2018-10-17T11:25:39.216Z,21.02
2018-10-17T11:28:14.274Z,21.28
2018-10-17T11:33:53.893Z,21.49
2018-10-17T11:36:28.567Z,21.31
2018-10-17T11:39:03.290Z,21.45
2018-10-17T11:41:38.007Z,21.68
2018-10-17T11:44:12.629Z,21.69
2018-10-17T11:46:47.148Z,21.84
2018-10-17T11:49:21.866Z,22.14
2018-10-17T11:51:57.145Z,21.99
2018-10-17T11:54:31.950Z,21.86
2018-10-17T11:57:06.565Z,22.01
2018-10-17T11:59:41.560Z,21.80
2018-10-17T12:02:16.241Z,21.80
2018-10-17T12:04:51.161Z,21.98
2018-10-17T12:07:25.921Z,21.93
2018-10-17T12:10:00.781Z,21.95
2018-10-17T12:12:35.451Z,22.13
2018-10-17T12:15:12.469Z,22.09
2018-10-17T12:17:46.885Z,22.27
2018-10-17T12:20:21.529Z,21.89
2018-10-17T12:22:56.545Z,22.17
2018-10-17T12:25:31.339Z,22.12
2018-10-17T12:28:06.132Z,22.27
2018-10-17T12:30:40.969Z,22.50
2018-10-17T12:33:15.509Z,22.70
2018-10-17T12:35:50.097Z,22.84
2018-10-17T12:38:24.791Z,22.66
2018-10-17T12:40:59.828Z,22.83
2018-10-17T12:43:34.293Z,22.98
2018-10-17T12:46:08.833Z,22.96
2018-10-17T12:48:43.475Z,22.97
2018-10-17T12:51:18.080Z,22.98
2018-10-17T12:53:52.653Z,23.17
2018-10-17T12:56:27.246Z,23.00
2018-10-17T12:59:01.947Z,23.03
2018-10-17T13:01:36.361Z,22.85
2018-10-17T13:04:11.084Z,22.78
2018-10-17T13:06:45.600Z,22.75
2018-10-17T13:09:20.249Z,22.58
2018-10-17T13:11:55.158Z,22.62
2018-10-17T13:14:30.092Z,22.85
2018-10-17T13:17:04.796Z,22.73
2018-10-17T13:19:39.756Z,22.70
2018-10-17T13:22:14.988Z,22.71
2018-10-17T13:24:49.449Z,22.70
2018-10-17T13:27:24.124Z,22.72
2018-10-17T13:29:58.921Z,22.48
2018-10-17T13:32:33.799Z,22.46
2018-10-17T13:35:08.528Z,22.44
2018-10-17T13:37:42.990Z,22.46
2018-10-17T13:40:17.566Z,22.39
2018-10-17T13:42:52.185Z,22.16
2018-10-17T13:45:26.605Z,22.36
2018-10-17T13:48:01.360Z,22.31
2018-10-17T13:50:36.188Z,22.31
2018-10-17T13:53:10.857Z,21.95
2018-10-17T13:56:03.513Z,22.00
2018-10-17T13:58:38.032Z,22.05
2018-10-17T14:01:12.678Z,21.94
2018-10-17T14:03:47.536Z,21.68
2018-10-17T14:06:22.168Z,21.56
2018-10-17T14:08:57.057Z,21.52
2018-10-17T14:11:31.792Z,21.43
2018-10-17T14:14:06.720Z,21.42
2018-10-17T14:16:41.254Z,21.37
2018-10-17T14:19:15.897Z,21.26
2018-10-17T14:21:50.384Z,21.12
2018-10-17T14:24:25.104Z,21.02
2018-10-17T14:26:59.701Z,20.96
2018-10-17T14:29:34.268Z,21.00
2018-10-17T14:32:09.084Z,21.01
2018-10-17T14:34:43.897Z,20.96
2018-10-17T14:37:18.940Z,21.00
2018-10-17T14:39:53.448Z,20.98
2018-10-17T14:42:28.044Z,20.97
2018-10-17T14:45:02.753Z,20.87
2018-10-17T14:47:37.953Z,20.81
2018-10-17T14:50:12.696Z,20.77
2018-10-17T14:52:47.272Z,20.61
2018-10-17T14:55:21.961Z,20.55
2018-10-17T14:57:56.516Z,20.51
2018-10-17T15:00:31.287Z,20.46
2018-10-17T15:03:05.928Z,20.45
2018-10-17T15:05:40.604Z,20.46
2018-10-17T15:08:15.119Z,20.42
2018-10-17T15:10:50.383Z,20.37
2018-10-17T15:13:24.704Z,20.34
2018-10-17T15:15:59.541Z,20.27
2018-10-17T15:18:34.130Z,20.24
2018-10-17T15:21:08.756Z,20.20
2018-10-17T15:23:43.266Z,20.18
2018-10-17T15:26:18.028Z,20.18
2018-10-17T15:28:52.428Z,20.09
2018-10-17T15:31:27.711Z,20.08
2018-10-17T15:34:02.417Z,20.05
2018-10-17T15:36:37.001Z,20.00
2018-10-17T15:39:12.594Z,19.99
2018-10-17T15:41:47.307Z,19.93
2018-10-17T15:47:33.868Z,19.82
2018-10-17T15:50:08.505Z,19.78
2018-10-17T15:52:53.358Z,19.75
2018-10-17T15:55:38.309Z,19.72
2018-10-17T15:58:13.044Z,19.67
2018-10-17T16:01:00.973Z,19.65
2018-10-17T16:06:57.529Z,19.57
2018-10-17T16:09:38.722Z,19.50
2018-10-17T16:12:15.185Z,19.39
2018-10-17T16:14:49.857Z,19.33
2018-10-17T16:17:24.433Z,19.24
2018-10-17T16:20:01.889Z,19.15
2018-10-17T16:22:36.658Z,19.07
2018-10-17T16:25:11.177Z,18.98
2018-10-17T16:27:45.888Z,18.92
2018-10-17T16:30:21.458Z,18.83
2018-10-17T16:32:56.235Z,18.69
2018-10-17T16:35:30.739Z,18.61
2018-10-17T16:38:05.624Z,18.53
2018-10-17T16:40:40.822Z,18.45
2018-10-17T16:43:15.415Z,18.34
2018-10-17T16:45:49.948Z,18.31
2018-10-17T16:48:31.817Z,18.26
2018-10-17T16:51:06.677Z,18.19
2018-10-17T16:53:41.323Z,18.14
2018-10-17T16:56:16.913Z,18.06
2018-10-17T16:58:51.721Z,17.98
2018-10-17T17:01:26.463Z,17.89
2018-10-17T17:04:01.158Z,17.78
2018-10-17T17:06:35.900Z,17.75
2018-10-17T17:09:11.507Z,17.73
2018-10-17T17:11:45.982Z,17.72
2018-10-17T17:14:20.567Z,17.64
2018-10-17T17:16:55.208Z,17.60
2018-10-17T17:19:30.365Z,17.51
2018-10-17T17:22:05.120Z,17.44
2018-10-17T17:24:39.753Z,17.45
2018-10-17T17:27:15.637Z,17.44
2018-10-17T17:29:50.413Z,17.41
2018-10-17T17:32:24.997Z,17.38
2018-10-17T17:34:59.593Z,17.39
2018-10-17T17:37:34.190Z,17.42
2018-10-17T17:40:10.053Z,17.35
2018-10-17T17:43:09.070Z,17.33
2018-10-17T17:45:44.614Z,17.32
2018-10-17T17:48:31.550Z,17.38
2018-10-17T17:51:07.178Z,17.42
2018-10-17T17:53:41.560Z,17.10
2018-10-17T17:56:16.738Z,17.18
2018-10-17T17:58:51.476Z,17.19
2018-10-17T18:01:26.099Z,17.14
2018-10-17T18:04:00.848Z,17.09
2018-10-17T18:06:35.563Z,17.01
2018-10-17T18:09:11.869Z,16.98
2018-10-17T18:11:46.389Z,16.96
2018-10-17T18:14:20.939Z,16.94
2018-10-17T18:16:55.502Z,16.87
2018-10-17T18:19:33.909Z,16.84
2018-10-17T18:22:08.467Z,16.81
2018-10-17T18:24:43.109Z,16.78
2018-10-17T18:27:17.741Z,16.80
2018-10-17T18:29:52.404Z,16.74
2018-10-17T18:32:27.071Z,16.66
2018-10-17T18:35:01.732Z,16.63
2018-10-17T18:37:36.852Z,16.64
2018-10-17T18:40:12.467Z,16.55
2018-10-17T18:42:47.442Z,16.55
2018-10-17T18:45:22.641Z,16.50
2018-10-17T18:47:57.503Z,16.51
2018-10-17T18:50:33.066Z,16.47
2018-10-17T18:53:08.349Z,16.46
2018-10-17T18:55:43.131Z,16.49
2018-10-17T18:58:17.751Z,16.49
2018-10-17T19:00:52.739Z,16.50
2018-10-17T19:03:27.416Z,16.54
2018-10-17T19:06:02.485Z,16.55
2018-10-17T19:08:42.118Z,16.61
2018-10-17T19:11:16.839Z,16.58
2018-10-17T19:13:51.927Z,16.57
2018-10-17T19:16:39.518Z,16.51
2018-10-17T19:19:15.134Z,16.21
2018-10-17T19:21:49.686Z,16.18
2018-10-17T19:24:24.459Z,16.11
2018-10-17T19:26:59.533Z,16.14
2018-10-17T19:29:34.909Z,16.24
2018-10-17T19:32:09.460Z,16.44
2018-10-17T19:34:44.168Z,16.55
2018-10-17T19:37:18.724Z,16.55
2018-10-17T19:39:53.758Z,16.57
2018-10-17T19:42:28.389Z,16.64
2018-10-17T19:45:02.992Z,16.65
2018-10-17T19:47:37.445Z,16.66
2018-10-17T19:50:11.929Z,16.64
2018-10-17T19:52:47.418Z,16.64
2018-10-17T19:55:22.071Z,16.67
2018-10-17T19:57:56.694Z,16.66
2018-10-17T20:00:31.132Z,16.73
2018-10-17T20:03:06.306Z,16.74
2018-10-17T20:05:41.011Z,16.68
2018-10-17T20:08:15.664Z,16.68
2018-10-17T20:10:51.862Z,16.69
2018-10-17T20:13:26.771Z,16.69
2018-10-17T20:16:01.581Z,16.62
2018-10-17T20:18:36.380Z,16.65
2018-10-17T20:21:10.956Z,16.62
2018-10-17T20:23:45.735Z,16.57
2018-10-17T20:26:20.565Z,16.53
2018-10-17T20:28:55.127Z,16.52
2018-10-17T20:31:29.884Z,16.62
2018-10-17T20:34:04.465Z,16.65
2018-10-17T20:36:39.208Z,16.69
2018-10-17T20:39:15.084Z,16.63
2018-10-17T20:41:49.620Z,16.63
2018-10-17T20:44:24.122Z,16.55
2018-10-17T20:46:59.005Z,16.64
2018-10-17T20:49:33.837Z,16.59
2018-10-17T20:52:08.348Z,16.54
2018-10-17T20:54:43.071Z,16.57
2018-10-17T20:57:17.793Z,16.50
2018-10-17T20:59:52.688Z,16.49
2018-10-17T21:02:27.618Z,16.44
2018-10-17T21:05:02.312Z,16.46
2018-10-17T21:07:36.941Z,16.40
2018-10-17T21:10:11.560Z,16.43
2018-10-17T21:12:46.225Z,16.45
2018-10-17T21:15:20.985Z,16.44
2018-10-17T21:17:55.645Z,16.46
2018-10-17T21:20:30.664Z,16.46
2018-10-17T21:23:05.208Z,16.43
2018-10-17T21:25:40.337Z,16.40
2018-10-17T21:28:14.902Z,16.41
2018-10-17T21:30:50.025Z,16.36
2018-10-17T21:33:25.026Z,16.36
2018-10-17T21:35:59.578Z,16.36
2018-10-17T21:38:34.185Z,16.37
2018-10-17T21:41:09.066Z,16.35
2018-10-17T21:43:44.153Z,16.26
2018-10-17T21:46:18.781Z,16.22
2018-10-17T21:48:53.332Z,16.21
2018-10-17T21:51:27.890Z,16.26
2018-10-17T21:54:02.476Z,16.22
2018-10-17T21:56:37.132Z,16.21
2018-10-17T21:59:11.876Z,16.24
2018-10-17T22:01:46.605Z,16.20
2018-10-17T22:04:21.181Z,16.18
2018-10-17T22:06:55.649Z,16.15
2018-10-17T22:09:30.169Z,16.14
2018-10-17T22:12:04.707Z,16.14
2018-10-17T22:14:39.287Z,16.11
2018-10-17T22:17:13.985Z,16.07
2018-10-17T22:19:49.307Z,16.05
2018-10-17T22:22:23.879Z,15.98
2018-10-17T22:24:58.397Z,15.91
2018-10-17T22:27:33.320Z,15.97
2018-10-17T22:30:08.076Z,15.93
2018-10-17T22:32:42.613Z,15.86
2018-10-17T22:35:17.057Z,15.82
2018-10-17T22:37:52.537Z,15.77
2018-10-17T22:40:27.429Z,15.72
2018-10-17T22:43:02.209Z,15.62
2018-10-17T22:45:36.681Z,15.61
2018-10-17T22:48:11.441Z,15.57
2018-10-17T22:50:45.980Z,15.51
2018-10-17T22:53:20.916Z,15.51
2018-10-17T22:55:55.463Z,15.46
2018-10-17T22:58:30.217Z,15.43
2018-10-17T23:01:05.098Z,15.38
2018-10-17T23:03:39.636Z,15.39
2018-10-17T23:06:14.282Z,15.26
2018-10-17T23:08:49.377Z,15.19
2018-10-17T23:11:23.908Z,15.12
2018-10-17T23:13:58.626Z,15.06
2018-10-17T23:16:33.240Z,15.02
2018-10-17T23:19:08.632Z,14.94
2018-10-17T23:21:43.520Z,14.88
2018-10-17T23:24:18.090Z,14.80
2018-10-17T23:26:53.612Z,14.74
2018-10-17T23:29:28.230Z,14.69
2018-10-17T23:32:03.068Z,14.75
2018-10-17T23:34:37.778Z,14.76
2018-10-17T23:37:13.754Z,14.78
2018-10-17T23:39:59.376Z,14.72
2018-10-17T23:42:34.188Z,14.77
2018-10-17T23:45:08.929Z,14.72
2018-10-17T23:47:43.589Z,14.70
2018-10-17T23:50:18.671Z,14.73
2018-10-17T23:52:53.249Z,14.69
2018-10-17T23:55:27.827Z,14.62
2018-10-17T23:58:02.589Z,14.51
